Havillah, Washington
Current Conditions -  °F | °C
As of 10:53 AM on Friday 28 Nov 2014 (Local Time) from KOMK Reporting Station
Overcast Overcast  
Wind Chill: 43°   Ceiling: 8500
Heat Index: 48°   Visibility: 10mi
Dew Point: 40°   Wind: 10mph
Humidity: 74%   Direction: 200°SSW
Pressure: 29.36"   Gusts: NA
Location:  48.6708°N, 119.278°W
Report Text: KOMK 281853Z AUTO 20009KT 10SM OVC085 09/04 A2936 RMK AO2 SLP945 T00890044
Loading
Personal Weather Stations






























Interactive Weather Map New forecast layout! Learn more

10-Day Weather Forecast

Advertisements
Track Severe Weather on mobile